Airfield :
LOGIN :

Register | Disclaimer

   EN    FR    IT 

 










Legend :    VFR   Marginal VFR   IFR   Intensive IFR   Very Intensive IFR
Visi :
Ceiling :
>= 8 km
>= 3000ft
5 to 8 km
1000 to 3000 ft
1500m to 5 km
500 to 1000 ft
800 to 1500m
200 to 500 ft
< 800m
< 200 ft
Symbols :   Thunderstorms  Fog  Heavy snow  Heavy precipitations  Wind > 20 kt
SIGMETs :     Misc.  Thunderstorms  Icing  Turbulence  Mountain Waves  Volcanic Ashes






- Airport Elevation : 681 ft
- IATA code : LBA


EGNM - Leeds Bradford

CURRENT METAR :
  • 181150Z 04007KT 010V080 9999 SCT047 16/09 Q1017

EXPIRED METARs :
  • 181120Z 04008KT 360V070 9999 SCT046 16/10 Q1017
  • 181050Z 02008KT 9999 FEW049 15/09 Q1018
  • 181020Z 03007KT 350V080 9999 FEW048 15/09 Q1018
  • 180950Z 03009KT 9999 FEW048 15/09 Q1018
  • 180920Z 02009KT 350V060 9999 FEW048 15/09 Q1018

TAF TAF EGNM
Valid from the 18 at 12:00 until the 19 at 12:00 UTC


181055Z 1812/1912 03010KT 9999 SCT040
PROB40
TEMPO 1814/1901 7000 RA BKN009
PROB40
TEMPO 1822/1908 BKN012
BECMG 1903/1906 33005KT
ATIS : +44 113 250 9696 (x2489)



MET'MAP, your aeronautical weather chart ! - Copyright ORBIFLY December 2007 - Disclaimer

ORBIFLY MET'MAP TEAM :

Programming & Development : Alexandra Zaïnal
Concept & original design : Baudouin d'Aumeries
Assistance for programming : Marc-Olivier Méhu
Technical & hardware support : Manuel Goepfert

Contact : metmap@orbifly.com




SOURCES & CREDITS :

   NOAA